createdAt,value
2018-08-09T00:03:09.136Z,22.90
2018-08-09T00:08:12.796Z,22.70
2018-08-09T00:13:16.187Z,22.70
2018-08-09T00:18:19.651Z,22.60
2018-08-09T00:23:23.184Z,22.50
2018-08-09T00:28:49.377Z,22.40
2018-08-09T01:07:41.499Z,21.80
2018-08-09T01:18:33.562Z,21.80
2018-08-09T01:23:41.048Z,21.80
2018-08-09T01:28:45.088Z,21.70
2018-08-09T01:39:01.886Z,21.70
2018-08-09T01:44:07.179Z,21.60
2018-08-09T01:49:10.926Z,21.60
2018-08-09T01:54:14.444Z,21.70
2018-08-09T01:59:24.962Z,21.70
2018-08-09T02:04:28.465Z,21.80
2018-08-09T02:09:34.057Z,21.80
2018-08-09T02:14:37.573Z,21.80
2018-08-09T02:19:41.185Z,21.70
2018-08-09T02:24:44.660Z,21.70
2018-08-09T02:29:48.212Z,21.70
2018-08-09T02:34:51.676Z,21.60
2018-08-09T02:39:55.224Z,21.60
2018-08-09T02:44:59.869Z,21.60
2018-08-09T02:50:04.818Z,21.40
2018-08-09T02:55:08.379Z,21.40
2018-08-09T03:00:11.979Z,21.20
2018-08-09T03:05:15.507Z,21.20
2018-08-09T03:10:18.905Z,21.00
2018-08-09T03:15:22.370Z,21.00
2018-08-09T03:20:25.872Z,21.10
2018-08-09T03:25:31.394Z,21.10
2018-08-09T03:30:35.979Z,21.20
2018-08-09T03:35:40.295Z,21.30
2018-08-09T03:40:43.915Z,21.30
2018-08-09T03:45:47.309Z,21.30
2018-08-09T03:50:50.687Z,21.10
2018-08-09T03:55:54.205Z,21.20
2018-08-09T04:00:58.498Z,21.20
2018-08-09T04:11:33.547Z,21.20
2018-08-09T04:16:40.957Z,21.30
2018-08-09T04:21:44.684Z,21.40
2018-08-09T04:26:48.226Z,21.50
2018-08-09T04:31:52.697Z,21.50
2018-08-09T04:36:58.722Z,21.40
2018-08-09T04:42:02.250Z,21.50
2018-08-09T04:47:06.251Z,21.50
2018-08-09T04:52:09.778Z,21.70
2018-08-09T04:57:13.388Z,21.90
2018-08-09T05:02:16.904Z,21.90
2018-08-09T05:07:20.513Z,21.90
2018-08-09T05:12:24.202Z,21.80
2018-08-09T05:17:28.018Z,22.00
2018-08-09T05:22:31.747Z,22.10
2018-08-09T05:27:35.670Z,22.30
2018-08-09T05:32:39.187Z,22.40
2018-08-09T05:37:43.048Z,22.50
2018-08-09T05:42:46.928Z,22.60
2018-08-09T05:47:50.493Z,22.60
2018-08-09T05:52:54.083Z,22.50
2018-08-09T05:57:57.629Z,22.60
2018-08-09T06:03:01.056Z,22.70
2018-08-09T06:08:04.670Z,22.90
2018-08-09T06:13:08.904Z,23.00
2018-08-09T06:18:22.712Z,23.10
2018-08-09T06:23:26.165Z,23.10
2018-08-09T06:28:29.708Z,23.40
2018-08-09T06:33:33.311Z,23.40
2018-08-09T06:38:37.805Z,23.40
2018-08-09T06:43:41.321Z,23.40
2018-08-09T06:48:46.743Z,23.60
2018-08-09T06:54:00.490Z,23.60
2018-08-09T06:59:05.003Z,23.70
2018-08-09T07:04:11.968Z,24.00
2018-08-09T07:09:15.492Z,24.30
2018-08-09T07:14:22.504Z,24.80
2018-08-09T07:19:31.856Z,25.30
2018-08-09T07:24:36.429Z,25.40
2018-08-09T07:29:39.927Z,25.90
2018-08-09T07:34:55.401Z,26.20
2018-08-09T07:45:40.902Z,27.30
2018-08-09T07:50:44.273Z,27.80
2018-08-09T07:55:47.784Z,28.40
2018-08-09T08:00:51.332Z,28.90
2018-08-09T08:05:54.988Z,29.40
2018-08-09T08:10:58.496Z,29.80
2018-08-09T08:16:02.055Z,30.20
2018-08-09T08:21:07.513Z,30.50
2018-08-09T08:26:11.133Z,31.00
2018-08-09T08:31:14.590Z,31.30
2018-08-09T08:36:25.096Z,31.60
2018-08-09T08:41:53.008Z,32.00
2018-08-09T08:46:56.388Z,32.10
2018-08-09T08:52:00.920Z,32.10
2018-08-09T08:57:04.433Z,32.00
2018-08-09T09:02:07.958Z,32.60
2018-08-09T09:07:11.611Z,32.80
2018-08-09T09:12:15.125Z,32.50
2018-08-09T09:17:18.798Z,32.80
2018-08-09T09:22:23.439Z,33.20
2018-08-09T09:27:26.938Z,33.20
2018-08-09T09:32:31.435Z,33.20
2018-08-09T09:37:38.448Z,32.70
2018-08-09T09:42:42.549Z,32.70
2018-08-09T09:47:46.123Z,33.00
2018-08-09T09:52:49.945Z,33.00
2018-08-09T09:57:53.432Z,33.40
2018-08-09T10:02:56.976Z,33.30
2018-08-09T10:08:00.456Z,33.40
2018-08-09T10:13:03.985Z,33.40
2018-08-09T10:18:07.498Z,33.40
2018-08-09T10:23:10.938Z,33.70
2018-08-09T10:28:14.969Z,34.20
2018-08-09T10:33:31.279Z,34.90
2018-08-09T10:38:36.208Z,35.80
2018-08-09T10:43:41.170Z,36.00
2018-08-09T10:48:44.771Z,35.80
2018-08-09T10:53:48.452Z,35.90
2018-08-09T10:58:57.489Z,36.40
2018-08-09T11:09:30.166Z,37.40
2018-08-09T11:14:33.681Z,37.80
2018-08-09T11:19:37.454Z,38.10
2018-08-09T11:24:42.488Z,38.60
2018-08-09T11:29:46.239Z,37.90
2018-08-09T11:34:50.059Z,38.10
2018-08-09T11:39:54.293Z,38.00
2018-08-09T11:44:58.589Z,38.70
2018-08-09T11:50:02.244Z,38.80
2018-08-09T11:55:05.875Z,39.20
2018-08-09T12:00:09.402Z,39.10
2018-08-09T12:05:12.996Z,38.70
2018-08-09T12:10:16.523Z,38.70
2018-08-09T12:15:21.248Z,38.90
2018-08-09T12:20:24.613Z,39.10
2018-08-09T12:25:28.242Z,39.50
2018-08-09T12:30:31.632Z,39.50
2018-08-09T12:35:35.053Z,39.30
2018-08-09T12:40:38.416Z,39.00
2018-08-09T12:45:42.937Z,38.80
2018-08-09T12:50:46.500Z,38.50
2018-08-09T12:55:49.904Z,38.20
2018-08-09T13:00:53.251Z,38.50
2018-08-09T13:05:56.683Z,38.00
2018-08-09T13:11:01.173Z,37.60
2018-08-09T13:16:05.737Z,37.10
2018-08-09T13:21:09.111Z,37.00
2018-08-09T13:26:12.473Z,36.40
2018-08-09T13:31:15.964Z,36.30
2018-08-09T13:45:56.948Z,34.20
2018-08-09T13:51:00.361Z,27.70
2018-08-09T13:56:04.267Z,25.90
2018-08-09T14:01:10.008Z,24.40
2018-08-09T14:06:14.265Z,24.00
2018-08-09T14:11:18.629Z,23.60
2018-08-09T14:16:23.289Z,23.30
2018-08-09T14:21:26.840Z,23.00
2018-08-09T14:26:31.340Z,22.90
2018-08-09T14:31:35.107Z,22.80
2018-08-09T14:36:39.621Z,22.50
2018-08-09T14:41:44.088Z,22.40
2018-08-09T14:46:47.519Z,22.40
2018-08-09T14:51:50.930Z,22.50
2018-08-09T14:56:54.436Z,22.50
2018-08-09T15:01:58.818Z,22.70
2018-08-09T15:07:02.193Z,22.90
2018-08-09T15:12:05.752Z,23.20
2018-08-09T15:17:10.759Z,23.30
2018-08-09T15:22:15.184Z,23.50
2018-08-09T15:27:18.885Z,23.70
2018-08-09T15:32:22.485Z,23.90
2018-08-09T15:37:27.152Z,24.00
2018-08-09T15:42:31.792Z,24.30
2018-08-09T15:47:36.223Z,24.20
2018-08-09T15:52:39.867Z,24.10
2018-08-09T15:57:44.648Z,24.00
2018-08-09T16:02:48.379Z,24.00
2018-08-09T16:07:52.997Z,24.10
2018-08-09T16:12:56.734Z,24.00
2018-08-09T16:18:00.328Z,24.10
2018-08-09T16:23:04.990Z,24.20
2018-08-09T16:28:08.497Z,24.40
2018-08-09T16:33:12.034Z,24.90
2018-08-09T16:38:16.817Z,25.40
2018-08-09T16:43:20.389Z,25.60
2018-08-09T16:48:23.903Z,25.60
2018-08-09T16:53:32.756Z,25.90
2018-08-09T16:58:36.815Z,26.20
2018-08-09T17:03:42.454Z,26.30
2018-08-09T17:08:49.593Z,26.40
2018-08-09T17:13:55.100Z,26.80
2018-08-09T17:19:01.324Z,26.70
2018-08-09T17:24:05.555Z,26.30
2018-08-09T17:29:12.826Z,26.00
2018-08-09T17:34:16.488Z,26.00
2018-08-09T17:39:20.512Z,25.90
2018-08-09T17:44:24.185Z,25.50
2018-08-09T17:49:27.699Z,25.40
2018-08-09T17:54:31.238Z,25.10
2018-08-09T17:59:34.819Z,25.00
2018-08-09T18:04:38.317Z,24.90
2018-08-09T18:09:41.810Z,24.70
2018-08-09T18:14:45.909Z,24.50
2018-08-09T18:19:49.459Z,24.40
2018-08-09T18:24:53.124Z,24.20
2018-08-09T18:29:56.614Z,24.10
2018-08-09T18:35:00.609Z,24.10
2018-08-09T18:40:12.868Z,24.10
2018-08-09T18:45:16.579Z,23.90
2018-08-09T18:50:22.545Z,23.90
2018-08-09T18:55:26.171Z,23.80
2018-08-09T19:00:30.482Z,23.80
2018-08-09T19:05:33.904Z,23.70
2018-08-09T19:10:41.678Z,23.60
2018-08-09T19:15:45.324Z,23.70
2018-08-09T19:20:50.042Z,23.60
2018-08-09T19:25:58.508Z,23.50
2018-08-09T19:31:07.913Z,23.50
2018-08-09T19:36:11.552Z,23.40
2018-08-09T19:41:20.770Z,23.40
2018-08-09T19:46:24.155Z,23.40
2018-08-09T19:51:28.258Z,23.20
2018-08-09T19:56:32.303Z,23.30
2018-08-09T20:01:35.963Z,23.20
2018-08-09T20:06:39.361Z,23.20
2018-08-09T20:11:50.608Z,23.10
2018-08-09T20:16:54.294Z,23.00
2018-08-09T20:21:57.769Z,23.10
2018-08-09T20:27:01.233Z,23.10
2018-08-09T20:32:04.847Z,23.20
2018-08-09T20:37:08.429Z,23.10
2018-08-09T20:42:11.897Z,23.10
2018-08-09T20:47:28.667Z,23.00
2018-08-09T20:52:32.174Z,22.90
2018-08-09T20:57:35.984Z,22.90
2018-08-09T21:02:39.497Z,22.80
2018-08-09T21:07:42.930Z,22.70
2018-08-09T21:12:46.397Z,22.60
2018-08-09T21:17:50.016Z,22.50
2018-08-09T21:22:54.044Z,22.50
2018-08-09T21:27:57.661Z,22.40
2018-08-09T21:33:01.394Z,22.20
2018-08-09T21:38:06.090Z,22.10
2018-08-09T21:43:13.425Z,22.10
2018-08-09T21:48:16.976Z,22.00
2018-08-09T21:53:20.464Z,21.80
2018-08-09T21:58:24.301Z,21.90
2018-08-09T22:03:30.156Z,21.90
2018-08-09T22:08:44.738Z,21.80
2018-08-09T22:13:53.721Z,21.70
2018-08-09T22:19:03.251Z,21.50
2018-08-09T22:24:06.978Z,21.50
2018-08-09T22:29:12.507Z,21.50
2018-08-09T22:34:16.655Z,21.40
2018-08-09T22:39:20.145Z,21.30
2018-08-09T22:44:23.714Z,21.20
2018-08-09T22:49:27.275Z,21.20
2018-08-09T22:54:30.707Z,21.10
2018-08-09T22:59:34.147Z,21.00
2018-08-09T23:04:37.668Z,21.00
2018-08-09T23:09:42.214Z,20.80
2018-08-09T23:14:45.612Z,20.80
2018-08-09T23:19:50.001Z,20.70
2018-08-09T23:24:53.432Z,20.60
2018-08-09T23:29:57.128Z,20.60
2018-08-09T23:35:00.596Z,20.50
2018-08-09T23:40:13.701Z,20.40
2018-08-09T23:45:23.979Z,20.30
2018-08-09T23:50:27.456Z,20.20
2018-08-09T23:55:32.081Z,20.20
